sensor_id;sensor_type;location;lat;lon;timestamp;P1;durP1;ratioP1;P2;durP2;ratioP2
81320;SDS011;70785;52.570;5.638;2023-11-21T00:01:11;23.23;;;8.45;;
81320;SDS011;70785;52.570;5.638;2023-11-21T00:03:37;23.73;;;8.43;;
81320;SDS011;70785;52.570;5.638;2023-11-21T00:06:03;21.63;;;8.30;;
81320;SDS011;70785;52.570;5.638;2023-11-21T00:08:30;31.92;;;9.25;;
81320;SDS011;70785;52.570;5.638;2023-11-21T00:10:56;24.23;;;9.02;;
81320;SDS011;70785;52.570;5.638;2023-11-21T00:13:22;21.60;;;7.95;;
81320;SDS011;70785;52.570;5.638;2023-11-21T00:15:48;24.45;;;7.55;;
81320;SDS011;70785;52.570;5.638;2023-11-21T00:18:15;26.70;;;8.82;;
81320;SDS011;70785;52.570;5.638;2023-11-21T00:20:42;19.58;;;7.90;;
81320;SDS011;70785;52.570;5.638;2023-11-21T00:23:08;21.85;;;8.40;;
81320;SDS011;70785;52.570;5.638;2023-11-21T00:25:35;21.33;;;7.32;;
81320;SDS011;70785;52.570;5.638;2023-11-21T00:28:01;18.33;;;7.60;;
81320;SDS011;70785;52.570;5.638;2023-11-21T00:30:28;20.83;;;7.30;;
81320;SDS011;70785;52.570;5.638;2023-11-21T00:32:54;24.10;;;7.97;;
81320;SDS011;70785;52.570;5.638;2023-11-21T00:35:20;25.40;;;8.65;;
81320;SDS011;70785;52.570;5.638;2023-11-21T00:37:47;17.83;;;7.68;;
81320;SDS011;70785;52.570;5.638;2023-11-21T00:40:15;20.20;;;7.32;;
81320;SDS011;70785;52.570;5.638;2023-11-21T00:42:41;25.17;;;8.82;;
81320;SDS011;70785;52.570;5.638;2023-11-21T00:45:07;22.73;;;7.95;;
81320;SDS011;70785;52.570;5.638;2023-11-21T00:47:34;23.25;;;9.32;;
81320;SDS011;70785;52.570;5.638;2023-11-21T00:50:00;22.60;;;9.13;;
81320;SDS011;70785;52.570;5.638;2023-11-21T00:52:26;21.20;;;7.72;;
81320;SDS011;70785;52.570;5.638;2023-11-21T00:54:52;21.40;;;8.57;;
81320;SDS011;70785;52.570;5.638;2023-11-21T00:57:19;24.52;;;9.57;;
81320;SDS011;70785;52.570;5.638;2023-11-21T00:59:45;24.10;;;8.15;;
81320;SDS011;70785;52.570;5.638;2023-11-21T01:02:11;25.33;;;9.25;;
81320;SDS011;70785;52.570;5.638;2023-11-21T01:04:37;21.83;;;8.15;;
81320;SDS011;70785;52.570;5.638;2023-11-21T01:07:03;22.85;;;9.20;;
81320;SDS011;70785;52.570;5.638;2023-11-21T01:09:31;24.50;;;10.00;;
81320;SDS011;70785;52.570;5.638;2023-11-21T01:11:57;21.55;;;7.82;;
81320;SDS011;70785;52.570;5.638;2023-11-21T01:14:25;21.08;;;7.55;;
81320;SDS011;70785;52.570;5.638;2023-11-21T01:16:52;23.25;;;8.25;;
81320;SDS011;70785;52.570;5.638;2023-11-21T01:19:18;21.77;;;8.90;;
81320;SDS011;70785;52.570;5.638;2023-11-21T01:21:44;21.00;;;8.23;;
81320;SDS011;70785;52.570;5.638;2023-11-21T01:24:11;20.98;;;8.45;;
81320;SDS011;70785;52.570;5.638;2023-11-21T01:26:37;22.77;;;7.80;;
81320;SDS011;70785;52.570;5.638;2023-11-21T01:29:03;20.10;;;8.25;;
81320;SDS011;70785;52.570;5.638;2023-11-21T01:31:30;19.70;;;7.63;;
81320;SDS011;70785;52.570;5.638;2023-11-21T01:33:57;21.38;;;8.45;;
81320;SDS011;70785;52.570;5.638;2023-11-21T01:36:23;20.23;;;7.95;;
81320;SDS011;70785;52.570;5.638;2023-11-21T01:38:55;20.60;;;8.00;;
81320;SDS011;70785;52.570;5.638;2023-11-21T01:41:21;22.88;;;7.95;;
81320;SDS011;70785;52.570;5.638;2023-11-21T01:43:47;23.60;;;7.65;;
81320;SDS011;70785;52.570;5.638;2023-11-21T01:46:13;22.38;;;7.88;;
81320;SDS011;70785;52.570;5.638;2023-11-21T01:48:41;23.48;;;7.93;;
81320;SDS011;70785;52.570;5.638;2023-11-21T01:51:07;21.88;;;6.85;;
81320;SDS011;70785;52.570;5.638;2023-11-21T01:53:34;17.85;;;7.32;;
81320;SDS011;70785;52.570;5.638;2023-11-21T01:56:02;20.83;;;7.10;;
81320;SDS011;70785;52.570;5.638;2023-11-21T01:58:30;22.05;;;7.70;;
81320;SDS011;70785;52.570;5.638;2023-11-21T02:00:57;18.73;;;7.65;;
81320;SDS011;70785;52.570;5.638;2023-11-21T02:03:24;19.20;;;7.53;;
81320;SDS011;70785;52.570;5.638;2023-11-21T02:05:52;22.45;;;7.20;;
81320;SDS011;70785;52.570;5.638;2023-11-21T02:08:19;18.13;;;8.90;;
81320;SDS011;70785;52.570;5.638;2023-11-21T02:10:45;19.75;;;8.07;;
81320;SDS011;70785;52.570;5.638;2023-11-21T02:13:13;19.75;;;7.90;;
81320;SDS011;70785;52.570;5.638;2023-11-21T02:15:39;20.55;;;7.38;;
81320;SDS011;70785;52.570;5.638;2023-11-21T02:18:05;20.98;;;7.32;;
81320;SDS011;70785;52.570;5.638;2023-11-21T02:20:32;19.50;;;7.53;;
81320;SDS011;70785;52.570;5.638;2023-11-21T02:23:00;19.45;;;8.55;;
81320;SDS011;70785;52.570;5.638;2023-11-21T02:25:28;19.85;;;7.00;;
81320;SDS011;70785;52.570;5.638;2023-11-21T02:27:59;15.25;;;6.70;;
81320;SDS011;70785;52.570;5.638;2023-11-21T02:30:27;16.98;;;6.25;;
81320;SDS011;70785;52.570;5.638;2023-11-21T02:32:54;21.85;;;6.57;;
81320;SDS011;70785;52.570;5.638;2023-11-21T02:35:20;17.38;;;6.20;;
81320;SDS011;70785;52.570;5.638;2023-11-21T02:37:47;22.58;;;6.68;;
81320;SDS011;70785;52.570;5.638;2023-11-21T02:40:13;16.42;;;7.15;;
81320;SDS011;70785;52.570;5.638;2023-11-21T02:42:43;16.80;;;6.18;;
81320;SDS011;70785;52.570;5.638;2023-11-21T02:45:10;18.17;;;6.55;;
81320;SDS011;70785;52.570;5.638;2023-11-21T02:47:38;15.85;;;5.05;;
81320;SDS011;70785;52.570;5.638;2023-11-21T02:50:05;16.67;;;5.70;;
81320;SDS011;70785;52.570;5.638;2023-11-21T02:52:34;12.48;;;5.45;;
81320;SDS011;70785;52.570;5.638;2023-11-21T02:55:01;18.60;;;5.43;;
81320;SDS011;70785;52.570;5.638;2023-11-21T02:57:28;17.90;;;5.82;;
81320;SDS011;70785;52.570;5.638;2023-11-21T02:59:54;18.38;;;4.85;;
81320;SDS011;70785;52.570;5.638;2023-11-21T03:02:20;20.02;;;7.07;;
81320;SDS011;70785;52.570;5.638;2023-11-21T03:04:47;15.20;;;5.15;;
81320;SDS011;70785;52.570;5.638;2023-11-21T03:07:15;17.42;;;5.90;;
81320;SDS011;70785;52.570;5.638;2023-11-21T03:09:41;18.67;;;5.45;;
81320;SDS011;70785;52.570;5.638;2023-11-21T03:12:07;15.70;;;6.38;;
81320;SDS011;70785;52.570;5.638;2023-11-21T03:14:35;22.63;;;6.75;;
81320;SDS011;70785;52.570;5.638;2023-11-21T03:17:01;20.85;;;7.05;;
81320;SDS011;70785;52.570;5.638;2023-11-21T03:19:28;18.45;;;5.25;;
81320;SDS011;70785;52.570;5.638;2023-11-21T03:21:54;14.43;;;6.05;;
81320;SDS011;70785;52.570;5.638;2023-11-21T03:24:20;17.17;;;6.43;;
81320;SDS011;70785;52.570;5.638;2023-11-21T03:26:48;20.45;;;6.32;;
81320;SDS011;70785;52.570;5.638;2023-11-21T03:29:14;16.45;;;6.13;;
81320;SDS011;70785;52.570;5.638;2023-11-21T03:31:40;23.90;;;6.40;;
81320;SDS011;70785;52.570;5.638;2023-11-21T03:34:09;17.95;;;6.60;;
81320;SDS011;70785;52.570;5.638;2023-11-21T03:36:41;21.27;;;7.10;;
81320;SDS011;70785;52.570;5.638;2023-11-21T03:39:07;15.07;;;6.47;;
81320;SDS011;70785;52.570;5.638;2023-11-21T03:41:33;15.48;;;6.93;;
81320;SDS011;70785;52.570;5.638;2023-11-21T03:43:59;16.38;;;6.53;;
81320;SDS011;70785;52.570;5.638;2023-11-21T03:46:25;19.63;;;6.20;;
81320;SDS011;70785;52.570;5.638;2023-11-21T03:48:52;17.15;;;5.97;;
81320;SDS011;70785;52.570;5.638;2023-11-21T03:51:18;18.73;;;6.60;;
81320;SDS011;70785;52.570;5.638;2023-11-21T03:53:44;20.60;;;7.40;;
81320;SDS011;70785;52.570;5.638;2023-11-21T03:56:10;19.10;;;5.97;;
81320;SDS011;70785;52.570;5.638;2023-11-21T03:58:36;18.02;;;6.63;;
81320;SDS011;70785;52.570;5.638;2023-11-21T04:01:02;20.35;;;7.05;;
81320;SDS011;70785;52.570;5.638;2023-11-21T04:03:28;22.50;;;6.15;;
81320;SDS011;70785;52.570;5.638;2023-11-21T04:05:55;22.77;;;7.20;;
81320;SDS011;70785;52.570;5.638;2023-11-21T04:08:21;16.92;;;6.38;;
81320;SDS011;70785;52.570;5.638;2023-11-21T04:10:47;21.67;;;6.28;;
81320;SDS011;70785;52.570;5.638;2023-11-21T04:13:14;19.13;;;6.47;;
81320;SDS011;70785;52.570;5.638;2023-11-21T04:15:40;17.98;;;5.30;;
81320;SDS011;70785;52.570;5.638;2023-11-21T04:18:06;19.35;;;5.88;;
81320;SDS011;70785;52.570;5.638;2023-11-21T04:20:32;20.65;;;5.50;;
81320;SDS011;70785;52.570;5.638;2023-11-21T04:22:58;20.45;;;5.75;;
81320;SDS011;70785;52.570;5.638;2023-11-21T04:25:24;13.88;;;4.82;;
81320;SDS011;70785;52.570;5.638;2023-11-21T04:27:50;16.52;;;5.50;;
81320;SDS011;70785;52.570;5.638;2023-11-21T04:30:16;16.92;;;4.45;;
81320;SDS011;70785;52.570;5.638;2023-11-21T04:32:43;12.10;;;4.47;;
81320;SDS011;70785;52.570;5.638;2023-11-21T04:35:09;13.25;;;3.95;;
81320;SDS011;70785;52.570;5.638;2023-11-21T04:37:35;11.18;;;4.25;;
81320;SDS011;70785;52.570;5.638;2023-11-21T04:40:02;11.93;;;4.65;;
81320;SDS011;70785;52.570;5.638;2023-11-21T04:42:35;11.20;;;4.68;;
81320;SDS011;70785;52.570;5.638;2023-11-21T04:45:06;14.52;;;4.13;;
81320;SDS011;70785;52.570;5.638;2023-11-21T04:47:37;12.07;;;3.08;;
81320;SDS011;70785;52.570;5.638;2023-11-21T04:50:04;8.35;;;2.80;;
81320;SDS011;70785;52.570;5.638;2023-11-21T04:52:31;8.07;;;2.58;;
81320;SDS011;70785;52.570;5.638;2023-11-21T04:54:58;8.13;;;3.08;;
81320;SDS011;70785;52.570;5.638;2023-11-21T04:57:26;8.15;;;2.97;;
81320;SDS011;70785;52.570;5.638;2023-11-21T04:59:54;9.35;;;3.65;;
81320;SDS011;70785;52.570;5.638;2023-11-21T05:02:20;11.57;;;3.05;;
81320;SDS011;70785;52.570;5.638;2023-11-21T05:04:47;16.35;;;3.55;;
81320;SDS011;70785;52.570;5.638;2023-11-21T05:07:13;8.00;;;2.88;;
81320;SDS011;70785;52.570;5.638;2023-11-21T05:09:43;14.13;;;4.43;;
81320;SDS011;70785;52.570;5.638;2023-11-21T05:12:12;9.82;;;3.20;;
81320;SDS011;70785;52.570;5.638;2023-11-21T05:14:39;14.45;;;3.75;;
81320;SDS011;70785;52.570;5.638;2023-11-21T05:17:05;11.93;;;4.95;;
81320;SDS011;70785;52.570;5.638;2023-11-21T05:19:33;10.25;;;3.17;;
81320;SDS011;70785;52.570;5.638;2023-11-21T05:22:01;13.82;;;3.90;;
81320;SDS011;70785;52.570;5.638;2023-11-21T05:24:27;10.52;;;3.17;;
81320;SDS011;70785;52.570;5.638;2023-11-21T05:26:54;15.07;;;3.47;;
81320;SDS011;70785;52.570;5.638;2023-11-21T05:29:20;13.30;;;5.97;;
81320;SDS011;70785;52.570;5.638;2023-11-21T05:31:47;15.63;;;4.97;;
81320;SDS011;70785;52.570;5.638;2023-11-21T05:34:13;10.32;;;4.38;;
81320;SDS011;70785;52.570;5.638;2023-11-21T05:36:42;14.13;;;4.47;;
81320;SDS011;70785;52.570;5.638;2023-11-21T05:39:09;13.07;;;3.00;;
81320;SDS011;70785;52.570;5.638;2023-11-21T05:41:36;10.60;;;4.10;;
81320;SDS011;70785;52.570;5.638;2023-11-21T05:44:04;10.20;;;3.30;;
81320;SDS011;70785;52.570;5.638;2023-11-21T05:46:30;10.30;;;3.47;;
81320;SDS011;70785;52.570;5.638;2023-11-21T05:48:57;14.95;;;4.65;;
81320;SDS011;70785;52.570;5.638;2023-11-21T05:51:23;10.02;;;3.35;;
81320;SDS011;70785;52.570;5.638;2023-11-21T05:53:49;13.00;;;3.90;;
81320;SDS011;70785;52.570;5.638;2023-11-21T05:56:15;9.85;;;3.55;;
81320;SDS011;70785;52.570;5.638;2023-11-21T05:58:42;7.93;;;5.03;;
81320;SDS011;70785;52.570;5.638;2023-11-21T06:01:08;8.63;;;4.70;;
81320;SDS011;70785;52.570;5.638;2023-11-21T06:03:38;14.15;;;11.15;;
81320;SDS011;70785;52.570;5.638;2023-11-21T06:06:04;10.73;;;7.78;;
81320;SDS011;70785;52.570;5.638;2023-11-21T06:08:31;10.18;;;6.18;;
81320;SDS011;70785;52.570;5.638;2023-11-21T06:10:57;8.88;;;4.07;;
81320;SDS011;70785;52.570;5.638;2023-11-21T06:13:23;9.52;;;3.65;;
81320;SDS011;70785;52.570;5.638;2023-11-21T06:15:50;10.10;;;4.72;;
81320;SDS011;70785;52.570;5.638;2023-11-21T06:18:17;11.30;;;3.20;;
81320;SDS011;70785;52.570;5.638;2023-11-21T06:20:45;6.85;;;3.40;;
81320;SDS011;70785;52.570;5.638;2023-11-21T06:23:11;12.63;;;4.00;;
81320;SDS011;70785;52.570;5.638;2023-11-21T06:25:38;13.80;;;4.15;;
81320;SDS011;70785;52.570;5.638;2023-11-21T06:28:04;11.00;;;5.07;;
81320;SDS011;70785;52.570;5.638;2023-11-21T06:30:30;12.93;;;4.75;;
81320;SDS011;70785;52.570;5.638;2023-11-21T06:32:57;15.38;;;4.13;;
81320;SDS011;70785;52.570;5.638;2023-11-21T06:35:25;11.95;;;3.47;;
81320;SDS011;70785;52.570;5.638;2023-11-21T06:37:53;11.52;;;4.45;;
81320;SDS011;70785;52.570;5.638;2023-11-21T06:40:19;14.25;;;5.05;;
81320;SDS011;70785;52.570;5.638;2023-11-21T06:42:45;14.30;;;5.43;;
81320;SDS011;70785;52.570;5.638;2023-11-21T06:45:12;11.48;;;4.22;;
81320;SDS011;70785;52.570;5.638;2023-11-21T06:47:39;10.20;;;4.38;;
81320;SDS011;70785;52.570;5.638;2023-11-21T06:50:05;10.18;;;4.50;;
81320;SDS011;70785;52.570;5.638;2023-11-21T06:52:32;13.68;;;5.63;;
81320;SDS011;70785;52.570;5.638;2023-11-21T06:54:58;15.90;;;6.50;;
81320;SDS011;70785;52.570;5.638;2023-11-21T06:57:25;17.08;;;5.72;;
81320;SDS011;70785;52.570;5.638;2023-11-21T06:59:51;16.08;;;5.43;;
81320;SDS011;70785;52.570;5.638;2023-11-21T07:02:17;13.45;;;4.75;;
81320;SDS011;70785;52.570;5.638;2023-11-21T07:04:46;11.43;;;5.55;;
81320;SDS011;70785;52.570;5.638;2023-11-21T07:07:12;9.85;;;4.90;;
81320;SDS011;70785;52.570;5.638;2023-11-21T07:09:38;12.00;;;5.28;;
81320;SDS011;70785;52.570;5.638;2023-11-21T07:12:05;12.73;;;4.80;;
81320;SDS011;70785;52.570;5.638;2023-11-21T07:14:33;13.55;;;5.00;;
81320;SDS011;70785;52.570;5.638;2023-11-21T07:17:00;8.48;;;4.22;;
81320;SDS011;70785;52.570;5.638;2023-11-21T07:19:26;11.50;;;4.55;;
81320;SDS011;70785;52.570;5.638;2023-11-21T07:21:52;11.60;;;4.85;;
81320;SDS011;70785;52.570;5.638;2023-11-21T07:24:18;10.73;;;5.15;;
81320;SDS011;70785;52.570;5.638;2023-11-21T07:26:44;12.98;;;4.53;;
81320;SDS011;70785;52.570;5.638;2023-11-21T07:29:10;9.43;;;4.88;;
81320;SDS011;70785;52.570;5.638;2023-11-21T07:31:37;13.23;;;4.28;;
81320;SDS011;70785;52.570;5.638;2023-11-21T07:34:03;12.63;;;4.88;;
81320;SDS011;70785;52.570;5.638;2023-11-21T07:36:29;11.45;;;4.38;;
81320;SDS011;70785;52.570;5.638;2023-11-21T07:38:56;12.52;;;4.93;;
81320;SDS011;70785;52.570;5.638;2023-11-21T07:41:22;12.60;;;5.30;;
81320;SDS011;70785;52.570;5.638;2023-11-21T07:43:48;9.63;;;4.38;;
81320;SDS011;70785;52.570;5.638;2023-11-21T07:46:14;9.75;;;4.70;;
81320;SDS011;70785;52.570;5.638;2023-11-21T07:48:41;8.85;;;3.50;;
81320;SDS011;70785;52.570;5.638;2023-11-21T07:51:08;11.07;;;4.00;;
81320;SDS011;70785;52.570;5.638;2023-11-21T07:53:34;8.63;;;3.97;;
81320;SDS011;70785;52.570;5.638;2023-11-21T07:56:06;12.75;;;3.53;;
81320;SDS011;70785;52.570;5.638;2023-11-21T07:58:34;10.48;;;4.22;;
81320;SDS011;70785;52.570;5.638;2023-11-21T08:01:01;8.65;;;3.25;;
81320;SDS011;70785;52.570;5.638;2023-11-21T08:03:30;9.07;;;3.55;;
81320;SDS011;70785;52.570;5.638;2023-11-21T08:05:57;9.18;;;3.85;;
81320;SDS011;70785;52.570;5.638;2023-11-21T08:08:23;7.88;;;3.63;;
81320;SDS011;70785;52.570;5.638;2023-11-21T08:10:50;11.63;;;3.63;;
81320;SDS011;70785;52.570;5.638;2023-11-21T08:13:25;9.32;;;3.55;;
81320;SDS011;70785;52.570;5.638;2023-11-21T08:15:54;7.82;;;3.50;;
81320;SDS011;70785;52.570;5.638;2023-11-21T08:18:27;10.98;;;3.80;;
81320;SDS011;70785;52.570;5.638;2023-11-21T08:20:54;8.02;;;3.88;;
81320;SDS011;70785;52.570;5.638;2023-11-21T08:23:21;9.82;;;3.63;;
81320;SDS011;70785;52.570;5.638;2023-11-21T08:25:51;9.43;;;4.43;;
81320;SDS011;70785;52.570;5.638;2023-11-21T08:28:18;11.88;;;4.13;;
81320;SDS011;70785;52.570;5.638;2023-11-21T08:30:45;10.48;;;5.00;;
81320;SDS011;70785;52.570;5.638;2023-11-21T08:33:11;10.40;;;4.53;;
81320;SDS011;70785;52.570;5.638;2023-11-21T08:35:37;9.50;;;4.00;;
81320;SDS011;70785;52.570;5.638;2023-11-21T08:38:03;9.95;;;3.90;;
81320;SDS011;70785;52.570;5.638;2023-11-21T08:40:30;7.80;;;3.67;;
81320;SDS011;70785;52.570;5.638;2023-11-21T08:42:56;8.57;;;4.13;;
81320;SDS011;70785;52.570;5.638;2023-11-21T08:45:24;9.55;;;3.63;;
81320;SDS011;70785;52.570;5.638;2023-11-21T08:47:51;11.52;;;4.85;;
81320;SDS011;70785;52.570;5.638;2023-11-21T08:50:17;9.90;;;4.05;;
81320;SDS011;70785;52.570;5.638;2023-11-21T08:52:44;8.98;;;5.10;;
81320;SDS011;70785;52.570;5.638;2023-11-21T08:55:12;11.82;;;5.10;;
81320;SDS011;70785;52.570;5.638;2023-11-21T08:57:39;13.85;;;4.78;;
81320;SDS011;70785;52.570;5.638;2023-11-21T09:00:07;14.52;;;5.90;;
81320;SDS011;70785;52.570;5.638;2023-11-21T09:02:42;15.02;;;5.63;;
81320;SDS011;70785;52.570;5.638;2023-11-21T09:05:09;13.57;;;5.45;;
81320;SDS011;70785;52.570;5.638;2023-11-21T09:07:36;12.68;;;5.65;;
81320;SDS011;70785;52.570;5.638;2023-11-21T09:10:04;13.25;;;5.72;;
81320;SDS011;70785;52.570;5.638;2023-11-21T09:12:33;13.20;;;5.22;;
81320;SDS011;70785;52.570;5.638;2023-11-21T09:15:04;18.70;;;6.57;;
81320;SDS011;70785;52.570;5.638;2023-11-21T09:17:31;18.00;;;7.10;;
81320;SDS011;70785;52.570;5.638;2023-11-21T09:19:59;23.33;;;8.40;;
81320;SDS011;70785;52.570;5.638;2023-11-21T09:22:25;18.88;;;6.10;;
81320;SDS011;70785;52.570;5.638;2023-11-21T09:24:52;19.23;;;8.15;;
81320;SDS011;70785;52.570;5.638;2023-11-21T09:27:19;17.42;;;7.15;;
81320;SDS011;70785;52.570;5.638;2023-11-21T09:29:45;19.63;;;8.20;;
81320;SDS011;70785;52.570;5.638;2023-11-21T09:32:13;21.70;;;8.32;;
81320;SDS011;70785;52.570;5.638;2023-11-21T09:34:41;19.48;;;7.55;;
81320;SDS011;70785;52.570;5.638;2023-11-21T09:37:08;17.92;;;7.20;;
81320;SDS011;70785;52.570;5.638;2023-11-21T09:39:35;19.42;;;7.88;;
81320;SDS011;70785;52.570;5.638;2023-11-21T09:42:06;19.33;;;7.82;;
81320;SDS011;70785;52.570;5.638;2023-11-21T09:44:46;18.92;;;6.40;;
81320;SDS011;70785;52.570;5.638;2023-11-21T09:47:21;22.70;;;7.45;;
81320;SDS011;70785;52.570;5.638;2023-11-21T09:49:48;14.90;;;5.90;;
81320;SDS011;70785;52.570;5.638;2023-11-21T09:52:21;15.02;;;6.25;;
81320;SDS011;70785;52.570;5.638;2023-11-21T09:54:51;15.25;;;6.72;;
81320;SDS011;70785;52.570;5.638;2023-11-21T09:57:21;11.05;;;5.57;;
81320;SDS011;70785;52.570;5.638;2023-11-21T09:59:52;11.93;;;5.28;;
81320;SDS011;70785;52.570;5.638;2023-11-21T10:02:22;16.85;;;5.55;;
81320;SDS011;70785;52.570;5.638;2023-11-21T10:04:52;14.30;;;5.40;;
81320;SDS011;70785;52.570;5.638;2023-11-21T10:07:18;11.75;;;4.50;;
81320;SDS011;70785;52.570;5.638;2023-11-21T10:09:46;17.02;;;6.22;;
81320;SDS011;70785;52.570;5.638;2023-11-21T10:12:14;14.80;;;5.72;;
81320;SDS011;70785;52.570;5.638;2023-11-21T10:14:42;16.17;;;6.05;;
81320;SDS011;70785;52.570;5.638;2023-11-21T10:17:10;19.33;;;5.38;;
81320;SDS011;70785;52.570;5.638;2023-11-21T10:19:38;16.30;;;6.40;;
81320;SDS011;70785;52.570;5.638;2023-11-21T10:22:05;14.82;;;5.75;;
81320;SDS011;70785;52.570;5.638;2023-11-21T10:24:32;16.98;;;6.72;;
81320;SDS011;70785;52.570;5.638;2023-11-21T10:26:58;17.63;;;6.22;;
81320;SDS011;70785;52.570;5.638;2023-11-21T10:29:30;14.25;;;6.03;;
81320;SDS011;70785;52.570;5.638;2023-11-21T10:31:58;18.58;;;6.55;;
81320;SDS011;70785;52.570;5.638;2023-11-21T10:34:25;18.45;;;6.00;;
81320;SDS011;70785;52.570;5.638;2023-11-21T10:36:53;18.05;;;6.53;;
81320;SDS011;70785;52.570;5.638;2023-11-21T10:39:19;17.13;;;5.45;;
81320;SDS011;70785;52.570;5.638;2023-11-21T10:41:49;12.27;;;5.13;;
81320;SDS011;70785;52.570;5.638;2023-11-21T10:44:17;13.20;;;5.50;;
81320;SDS011;70785;52.570;5.638;2023-11-21T10:46:48;10.98;;;4.65;;
81320;SDS011;70785;52.570;5.638;2023-11-21T10:49:22;9.45;;;4.10;;
81320;SDS011;70785;52.570;5.638;2023-11-21T10:51:50;9.85;;;3.50;;
81320;SDS011;70785;52.570;5.638;2023-11-21T10:54:22;7.13;;;3.45;;
81320;SDS011;70785;52.570;5.638;2023-11-21T10:59:16;8.95;;;3.35;;
81320;SDS011;70785;52.570;5.638;2023-11-21T11:01:46;7.22;;;3.17;;
81320;SDS011;70785;52.570;5.638;2023-11-21T11:04:17;7.47;;;2.90;;
81320;SDS011;70785;52.570;5.638;2023-11-21T11:07:05;7.65;;;2.97;;
81320;SDS011;70785;52.570;5.638;2023-11-21T11:09:35;8.60;;;3.50;;
81320;SDS011;70785;52.570;5.638;2023-11-21T11:12:01;6.53;;;3.65;;
81320;SDS011;70785;52.570;5.638;2023-11-21T11:14:28;7.10;;;3.83;;
81320;SDS011;70785;52.570;5.638;2023-11-21T11:16:54;6.03;;;2.92;;
81320;SDS011;70785;52.570;5.638;2023-11-21T11:19:25;6.75;;;3.20;;
81320;SDS011;70785;52.570;5.638;2023-11-21T11:27:36;9.63;;;3.65;;
81320;SDS011;70785;52.570;5.638;2023-11-21T11:30:19;9.38;;;3.72;;
81320;SDS011;70785;52.570;5.638;2023-11-21T11:38:23;10.02;;;4.88;;
81320;SDS011;70785;52.570;5.638;2023-11-21T11:40:56;9.40;;;4.88;;
81320;SDS011;70785;52.570;5.638;2023-11-21T11:43:25;13.13;;;5.05;;
81320;SDS011;70785;52.570;5.638;2023-11-21T11:45:55;14.25;;;5.13;;
81320;SDS011;70785;52.570;5.638;2023-11-21T11:48:22;10.30;;;4.53;;
81320;SDS011;70785;52.570;5.638;2023-11-21T11:51:01;12.48;;;6.10;;
81320;SDS011;70785;52.570;5.638;2023-11-21T11:53:43;12.98;;;6.35;;
81320;SDS011;70785;52.570;5.638;2023-11-21T11:58:51;12.82;;;6.38;;
81320;SDS011;70785;52.570;5.638;2023-11-21T12:01:22;13.35;;;6.47;;
81320;SDS011;70785;52.570;5.638;2023-11-21T12:06:42;14.63;;;6.70;;
81320;SDS011;70785;52.570;5.638;2023-11-21T12:09:19;12.32;;;5.95;;
81320;SDS011;70785;52.570;5.638;2023-11-21T12:11:47;15.38;;;7.00;;
81320;SDS011;70785;52.570;5.638;2023-11-21T12:14:14;13.82;;;7.63;;
81320;SDS011;70785;52.570;5.638;2023-11-21T12:16:42;16.23;;;7.57;;
81320;SDS011;70785;52.570;5.638;2023-11-21T12:19:09;17.48;;;7.60;;
81320;SDS011;70785;52.570;5.638;2023-11-21T12:21:36;15.95;;;8.32;;
81320;SDS011;70785;52.570;5.638;2023-11-21T12:24:02;14.43;;;7.05;;
81320;SDS011;70785;52.570;5.638;2023-11-21T12:26:29;13.10;;;6.90;;
81320;SDS011;70785;52.570;5.638;2023-11-21T12:28:56;12.27;;;6.80;;
81320;SDS011;70785;52.570;5.638;2023-11-21T12:31:22;15.52;;;7.93;;
81320;SDS011;70785;52.570;5.638;2023-11-21T12:33:49;14.48;;;7.70;;
81320;SDS011;70785;52.570;5.638;2023-11-21T12:36:16;15.20;;;8.75;;
81320;SDS011;70785;52.570;5.638;2023-11-21T12:38:42;13.93;;;6.85;;
81320;SDS011;70785;52.570;5.638;2023-11-21T12:41:11;15.07;;;7.93;;
81320;SDS011;70785;52.570;5.638;2023-11-21T12:43:38;16.45;;;8.25;;
81320;SDS011;70785;52.570;5.638;2023-11-21T12:46:08;14.43;;;7.50;;
81320;SDS011;70785;52.570;5.638;2023-11-21T12:48:39;15.50;;;8.60;;
81320;SDS011;70785;52.570;5.638;2023-11-21T12:51:08;15.48;;;7.82;;
81320;SDS011;70785;52.570;5.638;2023-11-21T12:53:35;14.60;;;6.47;;
81320;SDS011;70785;52.570;5.638;2023-11-21T12:56:07;13.48;;;6.38;;
81320;SDS011;70785;52.570;5.638;2023-11-21T12:58:36;16.00;;;7.53;;
81320;SDS011;70785;52.570;5.638;2023-11-21T13:01:05;16.02;;;8.35;;
81320;SDS011;70785;52.570;5.638;2023-11-21T13:03:37;13.43;;;7.18;;
81320;SDS011;70785;52.570;5.638;2023-11-21T13:06:05;10.50;;;6.35;;
81320;SDS011;70785;52.570;5.638;2023-11-21T13:08:36;11.38;;;6.60;;
81320;SDS011;70785;52.570;5.638;2023-11-21T13:11:04;10.93;;;5.70;;
81320;SDS011;70785;52.570;5.638;2023-11-21T13:13:31;10.27;;;6.13;;
81320;SDS011;70785;52.570;5.638;2023-11-21T13:16:01;12.38;;;6.30;;
81320;SDS011;70785;52.570;5.638;2023-11-21T13:18:30;12.27;;;6.15;;
81320;SDS011;70785;52.570;5.638;2023-11-21T13:21:01;12.27;;;6.30;;
81320;SDS011;70785;52.570;5.638;2023-11-21T13:23:36;12.70;;;6.72;;
81320;SDS011;70785;52.570;5.638;2023-11-21T13:26:03;13.68;;;7.30;;
81320;SDS011;70785;52.570;5.638;2023-11-21T13:28:31;11.25;;;6.72;;
81320;SDS011;70785;52.570;5.638;2023-11-21T13:30:58;11.98;;;6.38;;
81320;SDS011;70785;52.570;5.638;2023-11-21T13:33:37;11.05;;;6.28;;
81320;SDS011;70785;52.570;5.638;2023-11-21T13:36:05;10.60;;;6.18;;
81320;SDS011;70785;52.570;5.638;2023-11-21T13:41:02;10.35;;;5.95;;
81320;SDS011;70785;52.570;5.638;2023-11-21T13:43:32;9.32;;;6.07;;
81320;SDS011;70785;52.570;5.638;2023-11-21T13:45:59;10.73;;;6.35;;
81320;SDS011;70785;52.570;5.638;2023-11-21T13:48:28;11.70;;;6.50;;
81320;SDS011;70785;52.570;5.638;2023-11-21T13:51:03;9.85;;;6.07;;
81320;SDS011;70785;52.570;5.638;2023-11-21T13:53:49;10.02;;;6.30;;
81320;SDS011;70785;52.570;5.638;2023-11-21T13:56:18;9.77;;;6.05;;
81320;SDS011;70785;52.570;5.638;2023-11-21T13:58:52;10.55;;;6.97;;
81320;SDS011;70785;52.570;5.638;2023-11-21T14:01:20;9.25;;;6.07;;
81320;SDS011;70785;52.570;5.638;2023-11-21T14:03:56;7.47;;;5.00;;
81320;SDS011;70785;52.570;5.638;2023-11-21T14:06:46;7.68;;;4.55;;
81320;SDS011;70785;52.570;5.638;2023-11-21T14:09:17;7.70;;;5.35;;
81320;SDS011;70785;52.570;5.638;2023-11-21T14:11:51;7.07;;;4.88;;
81320;SDS011;70785;52.570;5.638;2023-11-21T14:14:19;7.45;;;5.53;;
81320;SDS011;70785;52.570;5.638;2023-11-21T14:16:46;8.63;;;5.50;;
81320;SDS011;70785;52.570;5.638;2023-11-21T14:19:13;6.15;;;4.35;;
81320;SDS011;70785;52.570;5.638;2023-11-21T14:21:43;7.53;;;4.45;;
81320;SDS011;70785;52.570;5.638;2023-11-21T14:24:09;6.53;;;4.28;;
81320;SDS011;70785;52.570;5.638;2023-11-21T14:26:41;8.38;;;4.97;;
81320;SDS011;70785;52.570;5.638;2023-11-21T14:29:08;10.00;;;5.38;;
81320;SDS011;70785;52.570;5.638;2023-11-21T14:31:38;16.40;;;4.60;;
81320;SDS011;70785;52.570;5.638;2023-11-21T14:34:05;7.07;;;4.88;;
81320;SDS011;70785;52.570;5.638;2023-11-21T14:36:32;10.25;;;5.53;;
81320;SDS011;70785;52.570;5.638;2023-11-21T14:38:59;8.77;;;5.30;;
81320;SDS011;70785;52.570;5.638;2023-11-21T14:41:25;10.15;;;6.05;;
81320;SDS011;70785;52.570;5.638;2023-11-21T14:43:54;8.73;;;4.95;;
81320;SDS011;70785;52.570;5.638;2023-11-21T14:46:22;8.20;;;5.07;;
81320;SDS011;70785;52.570;5.638;2023-11-21T14:48:49;9.52;;;5.30;;
81320;SDS011;70785;52.570;5.638;2023-11-21T14:51:33;8.50;;;5.05;;
81320;SDS011;70785;52.570;5.638;2023-11-21T14:54:15;9.50;;;4.93;;
81320;SDS011;70785;52.570;5.638;2023-11-21T14:56:50;9.80;;;4.75;;
81320;SDS011;70785;52.570;5.638;2023-11-21T14:59:16;9.38;;;5.60;;
81320;SDS011;70785;52.570;5.638;2023-11-21T15:01:42;8.52;;;4.50;;
81320;SDS011;70785;52.570;5.638;2023-11-21T15:04:20;8.75;;;4.82;;